createdAt,value
2023-03-06T00:01:00.363Z,94513.16
2023-03-06T00:03:28.292Z,94504.13
2023-03-06T00:05:57.936Z,94508.84
2023-03-06T00:08:25.444Z,94515.69
2023-03-06T00:10:52.651Z,94503.97
2023-03-06T00:13:20.214Z,94488.13
2023-03-06T00:15:47.905Z,94508.16
2023-03-06T00:18:15.807Z,94506.81
2023-03-06T00:20:44.117Z,94498.69
2023-03-06T01:43:30.308Z,94467.06
2023-03-06T01:46:25.065Z,94481.91
2023-03-06T01:49:25.840Z,94469.00
2023-03-06T01:51:55.109Z,94477.94
2023-03-06T01:54:26.524Z,94468.53
2023-03-06T01:57:00.304Z,94454.94
2023-03-06T01:59:29.568Z,94470.56
2023-03-06T02:02:01.852Z,94478.78
2023-03-06T05:49:08.288Z,94507.56
2023-03-06T05:51:35.652Z,94569.19
2023-03-06T05:54:03.624Z,94554.00
2023-03-06T05:56:30.598Z,94563.34
2023-03-06T05:58:57.640Z,94569.03
2023-03-06T06:01:25.572Z,94559.97
2023-03-06T06:03:52.604Z,94567.16
2023-03-06T06:06:19.419Z,94573.81
2023-03-06T06:08:46.324Z,94571.91
2023-03-06T06:11:14.016Z,94572.81
2023-03-06T06:13:45.444Z,94567.81
2023-03-06T06:16:16.575Z,94581.75
2023-03-06T06:18:43.829Z,94582.81
2023-03-06T06:21:14.651Z,94580.25
2023-03-06T06:23:42.142Z,94587.44
2023-03-06T06:26:10.667Z,94596.22
2023-03-06T06:28:37.649Z,94588.06
2023-03-06T06:31:09.973Z,94577.16
2023-03-06T06:33:36.815Z,94585.44
2023-03-06T06:36:04.231Z,94587.28
2023-03-06T06:38:31.099Z,94589.34
2023-03-06T06:41:30.768Z,94590.44
2023-03-06T06:43:44.868Z,94588.56
2023-03-06T06:46:41.889Z,94587.75
2023-03-06T06:49:00.268Z,94587.69
2023-03-06T06:51:27.232Z,94595.53
2023-03-06T06:53:56.647Z,94601.41
2023-03-06T06:56:23.542Z,94598.50
2023-03-06T06:58:53.803Z,94591.63
2023-03-06T07:01:22.518Z,94592.84
2023-03-06T07:03:49.447Z,94607.06
2023-03-06T07:06:16.647Z,94603.47
2023-03-06T07:27:37.180Z,94601.44
2023-03-06T07:30:05.361Z,94612.47
2023-03-06T07:32:32.763Z,94591.06
2023-03-06T07:35:18.755Z,94602.53
2023-03-06T07:37:46.529Z,94593.91
2023-03-06T07:40:13.359Z,94601.72
2023-03-06T07:42:40.241Z,94605.91
2023-03-06T07:45:12.899Z,94601.84
2023-03-06T07:47:40.720Z,94607.22
2023-03-06T07:50:08.024Z,94610.22
2023-03-06T07:52:36.228Z,94604.84
2023-03-06T07:55:04.256Z,94611.97
2023-03-06T07:57:31.301Z,94607.66
2023-03-06T07:59:58.297Z,94603.56
2023-03-06T08:02:25.314Z,94612.22
2023-03-06T08:04:56.534Z,94606.41
2023-03-06T08:07:23.732Z,94604.69
2023-03-06T08:09:51.645Z,94604.81
2023-03-06T08:12:18.632Z,94601.84
2023-03-06T08:14:45.620Z,94609.25
2023-03-06T08:17:12.677Z,94610.97
2023-03-06T08:19:39.591Z,94595.69
2023-03-06T08:22:07.036Z,94603.47
2023-03-06T08:24:34.781Z,94587.94
2023-03-06T08:27:02.483Z,94599.81
2023-03-06T08:29:32.304Z,94591.00
2023-03-06T08:31:59.150Z,94594.41
2023-03-06T08:34:26.071Z,94594.88
2023-03-06T08:36:53.652Z,94595.97
2023-03-06T08:39:23.779Z,94599.00
2023-03-06T08:41:50.992Z,94595.44
2023-03-06T08:44:17.995Z,94592.34
2023-03-06T08:46:46.190Z,94585.94
2023-03-06T08:49:14.997Z,94587.34
2023-03-06T08:51:43.389Z,94589.81
2023-03-06T08:54:12.859Z,94596.41
2023-03-06T08:56:39.549Z,94580.66
2023-03-06T08:59:06.789Z,94582.72
2023-03-06T09:01:37.853Z,94580.28
2023-03-06T09:04:08.349Z,94575.84
2023-03-06T09:06:39.300Z,94573.75
2023-03-06T09:09:07.468Z,94579.56
2023-03-06T09:11:34.418Z,94565.09
2023-03-06T09:14:01.725Z,94570.41
2023-03-06T09:16:28.634Z,94569.91
2023-03-06T09:18:55.620Z,94565.19
2023-03-06T09:21:23.164Z,94545.31
2023-03-06T09:23:51.971Z,94573.06
2023-03-06T09:26:18.950Z,94564.28
2023-03-06T09:28:46.718Z,94569.34
2023-03-06T09:31:20.228Z,94562.03
2023-03-06T09:33:47.837Z,94555.59
2023-03-06T09:36:17.420Z,94558.00
2023-03-06T09:38:45.999Z,94556.50
2023-03-06T09:41:22.056Z,94562.59
2023-03-06T09:43:51.932Z,94554.00
2023-03-06T09:46:47.218Z,94546.34
2023-03-06T09:49:48.111Z,94547.75
2023-03-06T09:52:24.008Z,94543.31
2023-03-06T09:54:57.368Z,94531.25
2023-03-06T09:57:28.493Z,94538.75
2023-03-06T10:00:02.837Z,94530.44
2023-03-06T10:02:36.537Z,94531.66
2023-03-06T10:05:07.284Z,94526.06
2023-03-06T10:07:45.395Z,94530.72
2023-03-06T10:10:19.640Z,94527.94
2023-03-06T10:12:54.208Z,94527.78
2023-03-06T10:15:32.354Z,94530.94
2023-03-06T10:17:59.318Z,94524.66
2023-03-06T10:20:28.024Z,94523.88
2023-03-06T10:23:14.910Z,94511.50
2023-03-06T10:26:02.055Z,94521.78
2023-03-06T10:28:41.918Z,94518.09
2023-03-06T10:31:20.802Z,94506.75
2023-03-06T10:34:05.894Z,94510.13
2023-03-06T10:36:32.759Z,94510.63
2023-03-06T10:39:00.138Z,94501.63
2023-03-06T10:41:32.903Z,94502.59
2023-03-06T10:43:59.661Z,94504.63
2023-03-06T10:46:38.570Z,94494.72
2023-03-06T10:49:22.045Z,94489.81
2023-03-06T10:51:58.869Z,94485.44
2023-03-06T10:54:26.332Z,94486.59
2023-03-06T10:56:53.195Z,94472.44
2023-03-06T10:59:25.667Z,94476.94
2023-03-06T11:01:55.421Z,94451.81
2023-03-06T11:04:29.989Z,94480.91
2023-03-06T11:07:06.122Z,94472.69
2023-03-06T11:09:35.861Z,94456.69
2023-03-06T11:12:23.096Z,94456.53
2023-03-06T11:15:29.871Z,94466.38
2023-03-06T11:18:04.560Z,94456.09
2023-03-06T11:20:52.463Z,94460.94
2023-03-06T11:23:54.929Z,94448.59
2023-03-06T11:26:37.377Z,94434.84
2023-03-06T11:29:22.994Z,94429.03
2023-03-06T11:32:15.122Z,94427.50
2023-03-06T11:34:47.679Z,94419.19
2023-03-06T11:37:40.112Z,94407.03
2023-03-06T11:41:04.808Z,94404.25
2023-03-06T11:43:56.031Z,94416.81
2023-03-06T11:46:29.121Z,94413.78
2023-03-06T11:49:15.646Z,94394.88
2023-03-06T11:51:53.301Z,94396.88
2023-03-06T11:54:20.336Z,94400.56
2023-03-06T11:56:58.442Z,94395.38
2023-03-06T11:59:40.135Z,94382.34
2023-03-06T12:02:22.200Z,94388.22
2023-03-06T12:04:56.614Z,94386.88
2023-03-06T12:07:33.204Z,94377.75
2023-03-06T12:10:27.942Z,94375.84
2023-03-06T12:16:13.519Z,94375.41
2023-03-06T12:18:52.614Z,94371.66
2023-03-06T12:21:56.545Z,94364.72
2023-03-06T12:25:01.026Z,94364.47
2023-03-06T12:28:09.263Z,94353.00
2023-03-06T12:31:13.049Z,94353.50
2023-03-06T12:33:52.119Z,94350.97
2023-03-06T12:36:34.419Z,94353.31
2023-03-06T12:39:10.732Z,94348.81
2023-03-06T12:42:06.757Z,94349.78
2023-03-06T12:44:56.717Z,94338.44
2023-03-06T12:47:28.134Z,94339.69
2023-03-06T12:50:01.347Z,94342.22
2023-03-06T12:52:31.580Z,94329.13
2023-03-06T12:55:05.985Z,94335.59
2023-03-06T12:57:33.213Z,94331.25
2023-03-06T13:00:00.614Z,94321.44
2023-03-06T13:02:39.899Z,94312.38
2023-03-06T13:05:12.930Z,94312.13
2023-03-06T13:07:58.397Z,94306.78
2023-03-06T13:10:31.340Z,94306.06
2023-03-06T13:13:01.999Z,94317.84
2023-03-06T13:15:41.181Z,94299.94
2023-03-06T13:18:24.807Z,94299.38
2023-03-06T13:20:53.989Z,94297.50
2023-03-06T13:23:29.896Z,94290.22
2023-03-06T13:25:59.175Z,94297.31
2023-03-06T13:28:26.052Z,94304.59
2023-03-06T13:30:53.434Z,94297.88
2023-03-06T13:33:30.212Z,94295.22
2023-03-06T13:36:17.909Z,94295.41
2023-03-06T13:38:45.291Z,94286.66
2023-03-06T13:41:21.252Z,94290.22
2023-03-06T13:43:50.562Z,94302.13
2023-03-06T13:46:27.046Z,94308.75
2023-03-06T13:49:08.967Z,94312.22
2023-03-06T13:51:38.149Z,94322.47
2023-03-06T13:54:24.333Z,94306.06
2023-03-06T13:56:56.912Z,94302.75
2023-03-06T14:00:08.079Z,94311.53
2023-03-06T14:02:55.168Z,94284.41
2023-03-06T14:05:23.081Z,94298.63
2023-03-06T14:08:14.711Z,94296.03
2023-03-06T14:10:43.647Z,94295.91
2023-03-06T14:13:22.317Z,94292.75
2023-03-06T14:15:54.509Z,94285.31
2023-03-06T14:18:50.704Z,94282.72
2023-03-06T14:21:45.776Z,94285.03
2023-03-06T14:24:17.458Z,94277.97
2023-03-06T14:26:48.855Z,94291.47
2023-03-06T14:29:27.136Z,94297.25
2023-03-06T14:31:56.893Z,94297.22
2023-03-06T14:34:28.233Z,94299.72
2023-03-06T14:36:56.826Z,94305.59
2023-03-06T14:39:38.372Z,94300.50
2023-03-06T14:42:26.689Z,94312.59
2023-03-06T14:45:16.375Z,94310.19
2023-03-06T14:47:44.154Z,94301.50
2023-03-06T14:50:34.243Z,94305.91
2023-03-06T14:53:15.007Z,94305.72
2023-03-06T14:55:50.851Z,94304.72
2023-03-06T14:58:22.064Z,94293.47
2023-03-06T15:00:54.742Z,94297.41
2023-03-06T15:03:43.261Z,94295.16
2023-03-06T15:06:16.938Z,94291.28
2023-03-06T15:08:47.886Z,94304.00
2023-03-06T15:11:15.206Z,94289.56
2023-03-06T15:13:42.088Z,94291.78
2023-03-06T15:16:15.063Z,94296.34
2023-03-06T15:18:54.968Z,94304.06
2023-03-06T15:21:24.087Z,94301.47
2023-03-06T15:23:53.818Z,94297.81
2023-03-06T15:26:20.836Z,94299.97
2023-03-06T15:29:15.241Z,94301.41
2023-03-06T15:31:46.888Z,94298.94
2023-03-06T15:34:19.008Z,94295.09
2023-03-06T15:36:49.604Z,94304.91
2023-03-06T15:39:38.949Z,94314.50
2023-03-06T15:42:23.605Z,94297.38
2023-03-06T15:45:03.160Z,94302.44
2023-03-06T15:47:30.145Z,94310.75
2023-03-06T15:49:57.452Z,94307.91
2023-03-06T15:52:24.405Z,94318.47
2023-03-06T15:54:51.265Z,94321.84
2023-03-06T15:57:29.459Z,94329.97
2023-03-06T15:59:57.888Z,94322.31
2023-03-06T16:02:24.959Z,94333.72
2023-03-06T16:04:52.664Z,94329.72
2023-03-06T16:07:20.827Z,94336.69
2023-03-06T16:09:47.967Z,94335.59
2023-03-06T16:12:19.208Z,94326.69
2023-03-06T16:14:47.851Z,94320.06
2023-03-06T16:17:16.768Z,94338.47
2023-03-06T16:19:44.069Z,94336.34
2023-03-06T16:22:14.623Z,94335.00
2023-03-06T16:24:41.968Z,94327.78
2023-03-06T16:27:17.783Z,94333.28
2023-03-06T16:29:44.782Z,94337.84
2023-03-06T16:32:11.914Z,94335.50
2023-03-06T16:34:38.842Z,94335.78
2023-03-06T16:37:09.269Z,94339.19
2023-03-06T16:39:36.840Z,94342.22
2023-03-06T16:42:04.013Z,94342.75
2023-03-06T16:44:31.332Z,94331.31
2023-03-06T16:47:00.893Z,94343.91
2023-03-06T16:49:28.957Z,94340.41
2023-03-06T16:51:57.202Z,94339.16
2023-03-06T16:54:26.360Z,94334.34
2023-03-06T16:56:53.564Z,94341.13
2023-03-06T16:59:20.698Z,94342.91
2023-03-06T17:01:47.931Z,94348.44
2023-03-06T17:04:14.865Z,94330.22
2023-03-06T17:06:43.641Z,94333.78
2023-03-06T17:09:14.577Z,94344.06
2023-03-06T17:11:43.583Z,94342.47
2023-03-06T17:14:10.508Z,94338.16
2023-03-06T17:16:40.552Z,94338.53
2023-03-06T17:19:07.916Z,94350.81
2023-03-06T17:21:37.203Z,94350.03
2023-03-06T17:24:05.001Z,94349.09
2023-03-06T17:26:32.256Z,94345.09
2023-03-06T17:29:00.248Z,94342.75
2023-03-06T17:31:28.822Z,94343.44
2023-03-06T17:34:00.430Z,94343.16
2023-03-06T17:36:30.108Z,94336.44
2023-03-06T17:38:58.828Z,94346.63
2023-03-06T17:41:26.453Z,94341.44
2023-03-06T17:43:56.138Z,94342.94
2023-03-06T17:46:23.244Z,94345.19
2023-03-06T17:48:50.345Z,94347.47
2023-03-06T17:51:17.398Z,94338.81
2023-03-06T17:53:44.366Z,94352.50
2023-03-06T17:56:13.671Z,94343.06
2023-03-06T17:58:41.214Z,94347.25
2023-03-06T18:01:13.441Z,94349.19
2023-03-06T18:03:44.732Z,94355.97
2023-03-06T18:06:13.013Z,94359.22
2023-03-06T18:08:43.465Z,94349.78
2023-03-06T18:11:11.489Z,94354.06
2023-03-06T18:13:40.704Z,94357.63
2023-03-06T18:16:08.881Z,94355.75
2023-03-06T18:18:36.303Z,94357.34
2023-03-06T18:21:08.325Z,94358.34
2023-03-06T18:23:36.352Z,94355.16
2023-03-06T18:26:21.689Z,94359.16
2023-03-06T18:28:52.399Z,94365.78
2023-03-06T18:31:24.541Z,94373.22
2023-03-06T18:34:00.576Z,94351.66
2023-03-06T18:36:30.989Z,94370.13
2023-03-06T18:38:58.856Z,94361.28
2023-03-06T18:41:25.736Z,94363.38
2023-03-06T18:43:54.560Z,94360.63
2023-03-06T18:46:25.813Z,94362.22
2023-03-06T18:48:52.733Z,94363.84
2023-03-06T18:51:20.361Z,94362.56
2023-03-06T18:53:47.347Z,94360.31
2023-03-06T18:56:21.235Z,94369.34
2023-03-06T18:58:48.863Z,94365.78
2023-03-06T19:01:15.952Z,94365.78
2023-03-06T19:03:43.036Z,94365.78
2023-03-06T19:06:12.822Z,94359.97
2023-03-06T19:08:40.554Z,94359.00
2023-03-06T19:11:12.827Z,94358.03
2023-03-06T19:13:39.796Z,94357.38
2023-03-06T19:16:08.515Z,94357.84
2023-03-06T19:18:35.487Z,94343.97
2023-03-06T19:21:14.466Z,94341.56
2023-03-06T19:23:41.704Z,94332.88
2023-03-06T19:26:09.364Z,94338.00
2023-03-06T19:28:40.949Z,94326.06
2023-03-06T19:31:14.338Z,94322.97
2023-03-06T19:33:42.655Z,94321.34
2023-03-06T19:36:12.312Z,94309.81
2023-03-06T19:38:41.297Z,94332.72
2023-03-06T19:41:13.518Z,94330.44
2023-03-06T19:43:41.977Z,94322.50
2023-03-06T19:46:15.286Z,94321.16
2023-03-06T19:48:42.861Z,94329.97
2023-03-06T19:51:10.875Z,94329.59
2023-03-06T19:53:39.794Z,94326.19
2023-03-06T19:56:29.337Z,94330.94
2023-03-06T19:58:56.301Z,94323.53
2023-03-06T20:01:25.322Z,94329.34
2023-03-06T20:03:59.552Z,94338.69
2023-03-06T20:06:30.191Z,94331.56
2023-03-06T20:08:57.102Z,94326.44
2023-03-06T20:11:26.476Z,94326.75
2023-03-06T20:13:53.497Z,94336.28
2023-03-06T20:16:20.349Z,94336.97
2023-03-06T20:18:47.320Z,94319.38
2023-03-06T20:21:15.841Z,94326.16
2023-03-06T20:23:43.465Z,94335.22
2023-03-06T20:26:12.711Z,94335.88
2023-03-06T20:28:41.433Z,94335.22
2023-03-06T20:31:17.316Z,94319.63
2023-03-06T20:33:45.196Z,94339.84
2023-03-06T20:36:14.115Z,94339.03
2023-03-06T20:38:41.264Z,94353.22
2023-03-06T20:41:14.712Z,94354.69
2023-03-06T20:43:41.634Z,94343.09
2023-03-06T20:46:08.532Z,94350.16
2023-03-06T20:48:35.448Z,94349.72
2023-03-06T20:51:03.958Z,94350.69
2023-03-06T20:53:31.305Z,94356.00
2023-03-06T20:55:58.217Z,94350.09
2023-03-06T20:58:28.974Z,94348.38
2023-03-06T21:00:57.051Z,94356.66
2023-03-06T21:03:24.725Z,94341.75
2023-03-06T21:05:52.236Z,94338.41
2023-03-06T21:08:19.230Z,94359.69
2023-03-06T21:10:46.934Z,94338.63
2023-03-06T21:13:14.438Z,94349.09
2023-03-06T21:15:42.653Z,94338.13
2023-03-06T21:18:10.664Z,94342.66
2023-03-06T21:20:41.648Z,94342.03
2023-03-06T21:23:09.749Z,94339.28
2023-03-06T21:25:36.887Z,94334.75
2023-03-06T21:28:03.720Z,94330.75
2023-03-06T21:30:30.646Z,94337.03
2023-03-06T21:32:57.509Z,94338.47
2023-03-06T21:35:24.339Z,94337.19
2023-03-06T21:37:51.198Z,94337.50
2023-03-06T21:40:19.640Z,94338.16
2023-03-06T21:42:46.588Z,94335.91
2023-03-06T21:45:13.514Z,94329.13
2023-03-06T21:47:41.147Z,94328.31
2023-03-06T21:50:10.963Z,94333.97
2023-03-06T21:52:37.905Z,94319.31
2023-03-06T21:55:05.864Z,94325.28
2023-03-06T21:57:32.879Z,94324.63
2023-03-06T21:59:59.945Z,94326.25
2023-03-06T22:02:26.990Z,94310.94
2023-03-06T22:04:54.103Z,94322.03
2023-03-06T22:07:21.431Z,94333.47
2023-03-06T22:09:51.778Z,94328.81
2023-03-06T22:12:18.637Z,94333.63
2023-03-06T22:14:45.572Z,94329.78
2023-03-06T22:17:12.400Z,94328.47
2023-03-06T22:19:39.402Z,94325.59
2023-03-06T22:22:06.312Z,94322.34
2023-03-06T22:24:33.262Z,94328.81
2023-03-06T22:27:00.100Z,94314.31
2023-03-06T22:29:27.152Z,94317.69
2023-03-06T22:31:54.061Z,94310.44
2023-03-06T22:34:20.973Z,94303.84
2023-03-06T22:36:48.480Z,94331.53
2023-03-06T22:39:15.676Z,94336.38
2023-03-06T22:41:42.520Z,94321.41
2023-03-06T22:44:14.889Z,94330.72
2023-03-06T22:46:42.031Z,94326.22
2023-03-06T22:49:11.743Z,94325.56
2023-03-06T22:51:38.787Z,94327.84
2023-03-06T22:54:07.441Z,94325.25
2023-03-06T22:56:34.576Z,94324.44
2023-03-06T22:59:01.579Z,94316.25
2023-03-06T23:01:31.021Z,94330.22
2023-03-06T23:03:59.347Z,94337.16
2023-03-06T23:06:35.653Z,94338.31
2023-03-06T23:09:22.575Z,94331.53
2023-03-06T23:12:09.168Z,94327.19
2023-03-06T23:14:54.982Z,94328.16
2023-03-06T23:17:40.242Z,94326.06
2023-03-06T23:20:25.867Z,94335.88
2023-03-06T23:23:11.573Z,94328.31
2023-03-06T23:25:41.645Z,94331.38
2023-03-06T23:28:08.507Z,94335.41
2023-03-06T23:30:35.459Z,94324.63
2023-03-06T23:33:02.260Z,94320.44
2023-03-06T23:35:29.096Z,94320.59
2023-03-06T23:37:56.534Z,94303.34
2023-03-06T23:40:23.499Z,94306.53
2023-03-06T23:42:50.365Z,94291.53
2023-03-06T23:45:17.327Z,94296.00
2023-03-06T23:47:44.102Z,94293.72
2023-03-06T23:50:11.761Z,94292.78
2023-03-06T23:52:38.975Z,94268.84
2023-03-06T23:55:06.969Z,94293.91
2023-03-06T23:57:33.818Z,94292.13
